Mc Kenzie, Tennessee
Current Conditions -  °F | °C
As of 2:35 AM on Monday 26 Jan 2015 (Local Time) from KPHT Reporting Station
Overcast Overcast  
Wind Chill: 23°   Ceiling: 1000
Heat Index: 32°   Visibility: 10mi
Dew Point: 28°   Wind: 12mph
Humidity: 87%   Direction: 320°NW
Pressure: 29.93"   Gusts: NA
Location:  36.1019°N, 88.5109°W
Report Text: KPHT 260835Z AUTO 32010KT 10SM OVC010 00/M02 A2993 RMK
Loading
Personal Weather Stations






























Interactive Weather Map New forecast layout! Learn more

10-Day Weather Forecast

Advertisements
Track Severe Weather on mobile